Time;durP1;ratioP1;P1;durP2;ratioP2;P2;SDS_P1;SDS_P2;PMS_P1;PMS_P2;Temp;Humidity;BMP_temperature;BMP_pressure;BME280_temperature;BME280_humidity;BME280_pressure;Samples;Min_cycle;Max_cycle;Signal;HPM_P1;HPM_P2
2021/06/21 00:00:26;;;;;;;0.00;0.00;;;19.00;73.50;;;;;;5051390;28;20033;-88
2021/06/21 00:02:52;;;;;;;5.35;0.00;;;19.00;73.60;;;;;;5051422;28;20393;-87
2021/06/21 00:05:18;;;;;;;0.00;0.00;;;19.00;73.60;;;;;;5051923;28;20040;-88
2021/06/21 00:07:44;;;;;;;0.00;0.00;;;19.00;73.60;;;;;;5052004;28;20044;-87
2021/06/21 00:10:12;;;;;;;0.28;0.10;;;19.00;73.70;;;;;;5052415;28;20044;-86
2021/06/21 00:12:44;;;;;;;0.00;0.00;;;18.90;73.60;;;;;;5051548;28;20025;-87
2021/06/21 00:15:13;;;;;;;0.47;0.05;;;18.90;73.60;;;;;;5051020;28;20032;-90
2021/06/21 00:17:39;;;;;;;0.20;0.10;;;18.90;73.70;;;;;;5033717;28;20035;-87
2021/06/21 00:20:06;;;;;;;0.85;0.40;;;18.90;73.70;;;;;;5048017;28;20029;-87
2021/06/21 00:22:32;;;;;;;0.70;0.10;;;18.80;73.70;;;;;;5051409;28;20072;-86
2021/06/21 00:24:58;;;;;;;0.28;0.00;;;18.80;73.70;;;;;;5034348;28;20017;-87
2021/06/21 00:27:25;;;;;;;0.13;0.10;;;18.80;73.70;;;;;;5034669;28;20397;-88
2021/06/21 00:29:51;;;;;;;0.03;0.00;;;18.80;73.70;;;;;;5049554;28;20037;-87
2021/06/21 00:32:18;;;;;;;0.00;0.00;;;18.70;73.70;;;;;;5048593;28;20044;-88
2021/06/21 00:34:45;;;;;;;7.05;0.15;;;18.70;73.70;;;;;;5031682;28;20037;-88
2021/06/21 00:37:11;;;;;;;3.40;0.45;;;18.70;73.70;;;;;;5063526;28;20037;-87
2021/06/21 00:39:37;;;;;;;0.20;0.13;;;18.70;73.70;;;;;;5027616;28;20398;-87
2021/06/21 00:42:03;;;;;;;0.73;0.10;;;18.70;73.70;;;;;;5050299;28;20021;-87
2021/06/21 00:44:29;;;;;;;3.58;0.20;;;18.70;73.80;;;;;;5051107;28;20052;-87
2021/06/21 00:46:55;;;;;;;1.00;0.20;;;18.60;73.80;;;;;;5050900;28;20057;-87
2021/06/21 00:49:22;;;;;;;0.03;0.00;;;18.60;73.80;;;;;;5034307;28;20036;-85
2021/06/21 00:51:48;;;;;;;4.78;0.30;;;18.60;73.80;;;;;;5013577;28;20048;-87
2021/06/21 00:54:14;;;;;;;0.93;0.30;;;18.60;73.90;;;;;;5050704;28;20036;-87
2021/06/21 00:56:40;;;;;;;0.00;0.00;;;18.60;74.00;;;;;;5050867;28;20029;-86
2021/06/21 00:59:06;;;;;;;0.10;0.00;;;18.60;73.90;;;;;;5051426;28;20028;-86
2021/06/21 01:01:32;;;;;;;0.10;0.00;;;18.50;73.90;;;;;;5051475;28;20033;-86
2021/06/21 01:03:59;;;;;;;0.65;0.10;;;18.50;73.90;;;;;;5050432;28;20056;-86
2021/06/21 01:06:27;;;;;;;0.00;0.00;;;18.50;74.70;;;;;;5034092;28;20024;-87
2021/06/21 01:08:53;;;;;;;0.15;0.05;;;18.50;74.00;;;;;;5050631;28;20031;-86
2021/06/21 01:11:19;;;;;;;0.82;0.30;;;18.50;73.90;;;;;;5050761;28;20033;-86
2021/06/21 01:13:49;;;;;;;0.00;0.00;;;18.40;73.90;;;;;;5052216;28;20033;-88
2021/06/21 01:16:16;;;;;;;0.17;0.10;;;18.40;74.00;;;;;;5050152;28;20042;-87
2021/06/21 01:19:05;;;;;;;0.20;0.10;;;18.40;74.00;;;;;;5050532;28;20500;-87
2021/06/21 01:21:45;;;;;;;0.60;0.13;;;18.40;74.00;;;;;;5030815;28;20029;-87
2021/06/21 01:24:39;;;;;;;0.08;0.00;;;18.40;74.00;;;;;;5046032;28;20545;-86
2021/06/21 01:27:25;;;;;;;3.03;0.40;;;18.40;74.00;;;;;;5046823;28;20018;-87
2021/06/21 01:30:09;;;;;;;2.53;0.10;;;18.30;73.90;;;;;;5035044;28;20486;-87
2021/06/21 01:32:58;;;;;;;0.20;0.00;;;18.30;74.00;;;;;;5033735;28;20490;-86
2021/06/21 01:35:30;;;;;;;1.60;0.20;;;18.30;74.00;;;;;;5052060;28;20024;-87
2021/06/21 01:37:58;;;;;;;0.05;0.00;;;18.30;74.00;;;;;;5046551;28;20036;-87
2021/06/21 01:40:25;;;;;;;0.05;0.00;;;18.30;74.00;;;;;;5030613;28;20037;-86
2021/06/21 01:42:53;;;;;;;0.00;0.00;;;18.30;74.00;;;;;;5043326;28;20037;-87
2021/06/21 01:45:19;;;;;;;1.73;0.45;;;18.20;74.00;;;;;;5033218;28;20518;-84
2021/06/21 01:47:47;;;;;;;8.02;0.20;;;18.20;74.00;;;;;;5016464;28;20519;-86
2021/06/21 01:50:19;;;;;;;1.48;0.13;;;18.20;74.10;;;;;;5048528;28;20485;-87
2021/06/21 01:52:47;;;;;;;0.65;0.32;;;18.20;74.20;;;;;;5046404;28;20025;-87
2021/06/21 01:55:14;;;;;;;0.00;0.00;;;18.10;74.10;;;;;;5049779;28;20059;-86
2021/06/21 01:57:40;;;;;;;0.17;0.10;;;18.10;74.10;;;;;;5049657;28;20478;-87
2021/06/21 02:00:08;;;;;;;0.85;0.13;;;18.10;74.20;;;;;;5051755;28;20036;-84
2021/06/21 02:02:34;;;;;;;0.10;0.10;;;18.10;74.20;;;;;;5049871;28;20036;-84
2021/06/21 02:05:00;;;;;;;0.10;0.00;;;18.10;74.20;;;;;;5046558;28;20048;-87
2021/06/21 02:07:27;;;;;;;0.00;0.00;;;18.10;74.20;;;;;;5051165;28;20446;-86
2021/06/21 02:09:54;;;;;;;4.05;0.22;;;18.10;74.20;;;;;;5049188;28;20036;-87
2021/06/21 02:12:20;;;;;;;0.00;0.00;;;18.10;74.20;;;;;;5049590;28;20029;-86
2021/06/21 02:14:51;;;;;;;0.03;0.00;;;18.10;74.20;;;;;;5033610;28;20040;-88
2021/06/21 02:17:21;;;;;;;0.00;0.00;;;18.10;74.20;;;;;;5051356;28;20501;-87
2021/06/21 02:19:50;;;;;;;0.63;0.10;;;18.10;74.20;;;;;;5052724;28;20029;-84
2021/06/21 02:22:18;;;;;;;0.10;0.03;;;18.10;74.20;;;;;;5049073;28;20393;-84
2021/06/21 02:24:44;;;;;;;1.08;0.20;;;18.10;74.10;;;;;;5048928;28;20474;-86
2021/06/21 02:27:11;;;;;;;0.00;0.00;;;18.10;74.10;;;;;;5049167;28;20028;-87
2021/06/21 02:29:37;;;;;;;2.63;0.30;;;18.10;74.20;;;;;;5049689;28;20040;-87
2021/06/21 02:32:03;;;;;;;0.82;0.17;;;18.10;74.20;;;;;;5032536;28;20037;-88
2021/06/21 02:34:30;;;;;;;9.52;0.32;;;18.00;74.20;;;;;;5034602;28;20044;-88
2021/06/21 02:36:56;;;;;;;0.00;0.00;;;18.00;74.20;;;;;;5051452;28;20508;-85
2021/06/21 02:39:22;;;;;;;0.05;0.00;;;18.00;74.20;;;;;;5048998;28;20029;-87
2021/06/21 02:41:48;;;;;;;0.00;0.00;;;18.00;74.30;;;;;;5052080;28;20390;-86
2021/06/21 02:44:14;;;;;;;0.00;0.00;;;18.00;74.20;;;;;;5050492;28;20041;-82
2021/06/21 02:46:40;;;;;;;0.35;0.32;;;18.00;74.20;;;;;;5048545;28;20494;-87
2021/06/21 02:49:06;;;;;;;0.75;0.10;;;18.10;74.20;;;;;;5049683;28;20036;-86
2021/06/21 02:51:41;;;;;;;2.08;0.05;;;18.00;74.20;;;;;;5053095;28;20036;-87
2021/06/21 02:54:20;;;;;;;0.45;0.10;;;17.90;74.20;;;;;;5036857;28;20381;-87
2021/06/21 02:56:46;;;;;;;0.45;0.10;;;17.90;74.30;;;;;;5037360;28;20030;-86
2021/06/21 02:59:13;;;;;;;0.45;0.30;;;17.90;74.30;;;;;;5051542;28;20367;-85
2021/06/21 03:01:53;;;;;;;0.38;0.22;;;17.90;74.30;;;;;;5048432;28;20044;-87
2021/06/21 03:04:20;;;;;;;0.00;0.00;;;17.90;74.40;;;;;;5047428;28;20040;-86
2021/06/21 03:06:47;;;;;;;3.28;0.20;;;17.90;74.30;;;;;;5048081;28;20478;-86
2021/06/21 03:09:14;;;;;;;0.32;0.10;;;17.90;74.40;;;;;;5048449;28;20501;-86
2021/06/21 03:11:42;;;;;;;0.95;0.20;;;17.90;74.40;;;;;;5036258;28;20056;-87
2021/06/21 03:14:08;;;;;;;0.00;0.00;;;17.90;74.40;;;;;;5053030;28;20025;-85
2021/06/21 03:16:34;;;;;;;1.15;0.20;;;17.90;74.40;;;;;;5052378;28;20394;-85
2021/06/21 03:19:00;;;;;;;0.55;0.20;;;17.90;74.40;;;;;;5047809;28;20033;-86
2021/06/21 03:21:26;;;;;;;1.60;0.20;;;17.80;74.40;;;;;;5048175;28;20025;-84
2021/06/21 03:23:56;;;;;;;0.15;0.00;;;17.80;74.40;;;;;;5050462;28;20040;-87
2021/06/21 03:26:29;;;;;;;0.05;0.00;;;17.70;74.50;;;;;;5034851;28;20421;-87
2021/06/21 03:28:55;;;;;;;0.47;0.10;;;17.80;74.50;;;;;;5051875;28;20032;-87
2021/06/21 03:31:22;;;;;;;8.85;0.73;;;17.70;74.50;;;;;;5051721;28;20040;-86
2021/06/21 03:33:48;;;;;;;0.20;0.10;;;17.70;75.30;;;;;;5052265;28;20032;-85
2021/06/21 03:36:14;;;;;;;0.00;0.00;;;17.70;74.50;;;;;;5053455;28;20066;-86
2021/06/21 03:38:40;;;;;;;0.35;0.00;;;17.70;74.60;;;;;;5052247;28;20021;-87
2021/06/21 03:41:06;;;;;;;0.20;0.10;;;17.70;74.60;;;;;;5052980;28;20028;-87
2021/06/21 03:43:34;;;;;;;0.20;0.10;;;17.70;74.70;;;;;;5053342;28;20048;-87
2021/06/21 03:46:02;;;;;;;0.20;0.10;;;17.70;74.70;;;;;;5051047;28;20049;-87
2021/06/21 03:48:28;;;;;;;0.68;0.05;;;17.60;74.70;;;;;;5052055;28;20029;-87
2021/06/21 03:50:54;;;;;;;0.00;0.00;;;17.60;74.70;;;;;;5052123;28;20032;-87
2021/06/21 03:53:23;;;;;;;0.32;0.10;;;17.70;74.80;;;;;;5052121;28;20394;-88
2021/06/21 03:55:49;;;;;;;0.28;0.00;;;17.60;74.80;;;;;;5047464;28;20048;-87
2021/06/21 03:58:16;;;;;;;0.10;0.00;;;17.60;74.70;;;;;;5050931;28;20052;-86
2021/06/21 04:00:42;;;;;;;0.10;0.00;;;17.60;74.70;;;;;;5052120;28;20033;-87
2021/06/21 04:03:09;;;;;;;0.10;0.00;;;17.60;74.70;;;;;;5014813;28;20418;-86
2021/06/21 04:05:37;;;;;;;0.00;0.00;;;17.60;74.70;;;;;;5051647;28;20474;-86
2021/06/21 04:08:05;;;;;;;0.38;0.10;;;17.60;74.70;;;;;;5052300;28;20029;-87
2021/06/21 04:10:31;;;;;;;0.55;0.20;;;17.60;74.70;;;;;;5047235;28;20033;-87
2021/06/21 04:12:57;;;;;;;0.75;0.20;;;17.70;74.80;;;;;;5030796;28;20051;-86
2021/06/21 04:15:29;;;;;;;0.50;0.10;;;17.70;74.80;;;;;;5046366;28;20036;-87
2021/06/21 04:17:55;;;;;;;;;;;17.70;74.80;;;;;;5049608;28;20363;-87
2021/06/21 04:20:21;;;;;;;0.00;0.00;;;17.70;74.70;;;;;;5033245;28;20369;-87
2021/06/21 04:22:47;;;;;;;0.00;0.00;;;17.70;74.60;;;;;;5048671;28;20033;-86
2021/06/21 04:25:15;;;;;;;6.13;0.00;;;17.70;74.60;;;;;;5046905;28;20037;-86
2021/06/21 04:27:41;;;;;;;0.22;0.13;;;17.70;74.60;;;;;;5046960;28;20025;-86
2021/06/21 04:30:08;;;;;;;0.25;0.20;;;17.80;74.60;;;;;;5046523;28;20033;-86
2021/06/21 04:32:34;;;;;;;0.57;0.35;;;17.80;74.60;;;;;;5051105;28;20462;-84
2021/06/21 04:35:00;;;;;;;0.22;0.10;;;17.80;74.60;;;;;;5051673;28;20056;-87
2021/06/21 04:37:27;;;;;;;0.15;0.00;;;17.90;74.60;;;;;;5052442;28;20029;-87
2021/06/21 04:39:53;;;;;;;0.30;0.10;;;17.90;74.50;;;;;;5050226;28;20048;-87
2021/06/21 04:42:19;;;;;;;2.90;0.30;;;17.90;74.40;;;;;;5051012;28;20032;-86
2021/06/21 04:44:46;;;;;;;0.00;0.00;;;17.90;74.50;;;;;;5016583;28;20417;-86
2021/06/21 04:47:12;;;;;;;0.10;0.05;;;17.80;74.50;;;;;;5031097;28;20041;-87
2021/06/21 04:49:38;;;;;;;2.63;0.35;;;17.80;74.70;;;;;;5051269;28;20029;-87
2021/06/21 04:52:07;;;;;;;0.50;0.43;;;17.80;74.70;;;;;;5034310;28;20029;-85
2021/06/21 04:54:33;;;;;;;2.10;0.43;;;17.80;74.70;;;;;;5050719;28;20486;-86
2021/06/21 04:56:59;;;;;;;3.20;0.10;;;17.80;74.70;;;;;;5031793;28;20033;-87
2021/06/21 04:59:25;;;;;;;1.15;0.30;;;17.80;74.70;;;;;;5049105;28;20029;-87
2021/06/21 05:01:51;;;;;;;6.93;0.30;;;17.80;74.70;;;;;;5046557;28;20037;-86
2021/06/21 05:04:18;;;;;;;0.47;0.10;;;17.80;74.80;;;;;;5046098;28;20482;-88
2021/06/21 05:06:44;;;;;;;1.17;0.10;;;17.90;74.80;;;;;;5047520;28;20025;-86
2021/06/21 05:09:11;;;;;;;0.25;0.08;;;18.00;74.80;;;;;;5046593;28;20498;-87
2021/06/21 05:11:37;;;;;;;0.20;0.00;;;18.10;74.50;;;;;;5034862;28;20021;-85
2021/06/21 05:14:03;;;;;;;0.52;0.32;;;18.10;74.40;;;;;;5050784;28;20065;-86
2021/06/21 05:16:29;;;;;;;0.45;0.00;;;18.10;74.30;;;;;;5029439;28;20048;-87
2021/06/21 05:18:56;;;;;;;0.43;0.17;;;18.10;74.50;;;;;;5030941;28;20049;-87
2021/06/21 05:21:22;;;;;;;3.47;0.32;;;18.10;74.50;;;;;;5022771;28;20398;-87
2021/06/21 05:23:48;;;;;;;2.00;0.22;;;18.10;74.60;;;;;;5051711;28;20467;-87
2021/06/21 05:26:14;;;;;;;0.38;0.10;;;18.10;74.60;;;;;;5050676;28;20036;-87
2021/06/21 05:28:40;;;;;;;0.20;0.15;;;18.10;74.60;;;;;;5048342;28;20036;-85
2021/06/21 05:31:06;;;;;;;0.63;0.20;;;18.10;74.60;;;;;;5051211;28;20029;-87
2021/06/21 05:33:32;;;;;;;5.97;0.20;;;18.10;74.60;;;;;;5050158;28;20017;-86
2021/06/21 05:35:58;;;;;;;0.20;0.10;;;18.20;74.60;;;;;;5051852;28;20403;-86
2021/06/21 05:38:24;;;;;;;0.63;0.10;;;18.30;74.50;;;;;;5053150;28;20021;-86
2021/06/21 05:40:50;;;;;;;6.53;0.30;;;18.30;74.50;;;;;;5050800;28;20048;-85
2021/06/21 05:43:16;;;;;;;1.40;0.00;;;18.30;74.50;;;;;;5050790;28;20025;-86
2021/06/21 05:45:43;;;;;;;0.00;0.00;;;18.30;74.40;;;;;;5049445;28;20044;-87
2021/06/21 05:48:09;;;;;;;0.35;0.10;;;18.30;74.40;;;;;;5054433;28;20469;-86
2021/06/21 05:50:38;;;;;;;2.60;0.38;;;18.30;74.50;;;;;;5038345;28;20366;-87
2021/06/21 05:53:04;;;;;;;0.00;0.00;;;18.30;74.50;;;;;;5038721;28;20029;-86
2021/06/21 05:55:30;;;;;;;0.15;0.10;;;18.30;74.50;;;;;;5034386;28;20040;-87
2021/06/21 05:57:56;;;;;;;0.43;0.10;;;18.40;74.60;;;;;;5047427;28;20052;-85
2021/06/21 06:00:22;;;;;;;0.00;0.00;;;18.50;74.50;;;;;;5049256;28;20032;-86
2021/06/21 06:02:48;;;;;;;2.85;0.15;;;18.70;74.30;;;;;;5054278;28;20025;-86
2021/06/21 06:05:15;;;;;;;0.40;0.40;;;18.90;73.90;;;;;;5054087;28;20037;-84
2021/06/21 06:07:41;;;;;;;0.30;0.20;;;19.10;73.40;;;;;;5054559;28;20036;-87
2021/06/21 06:10:07;;;;;;;0.28;0.05;;;19.20;73.20;;;;;;5055079;28;20025;-86
2021/06/21 06:12:33;;;;;;;0.43;0.20;;;19.20;73.20;;;;;;5037045;28;20028;-86
2021/06/21 06:15:00;;;;;;;0.98;0.20;;;19.30;73.30;;;;;;5037370;28;20025;-87
2021/06/21 06:17:26;;;;;;;0.20;0.00;;;19.20;73.30;;;;;;5053277;28;20029;-86
2021/06/21 06:19:52;;;;;;;0.50;0.40;;;19.20;73.30;;;;;;5034638;28;20050;-86
2021/06/21 06:22:18;;;;;;;1.55;0.10;;;19.30;73.40;;;;;;5066871;28;20017;-87
2021/06/21 06:24:45;;;;;;;0.55;0.22;;;19.20;73.40;;;;;;5049030;28;20041;-86
2021/06/21 06:27:11;;;;;;;0.22;0.08;;;19.20;73.50;;;;;;5050231;28;20471;-85
2021/06/21 06:29:37;;;;;;;0.55;0.30;;;19.10;73.70;;;;;;5054887;28;20037;-85
2021/06/21 06:32:03;;;;;;;0.05;0.00;;;19.10;73.80;;;;;;5053638;28;20029;-86
2021/06/21 06:34:30;;;;;;;0.88;0.13;;;19.00;73.90;;;;;;5032751;28;20056;-87
2021/06/21 06:36:56;;;;;;;0.00;0.00;;;19.00;73.90;;;;;;5049151;28;20037;-87
2021/06/21 06:39:22;;;;;;;2.00;0.10;;;19.10;73.90;;;;;;5049059;28;20025;-86
2021/06/21 06:41:48;;;;;;;0.40;0.10;;;19.10;73.90;;;;;;5051890;28;20017;-86
2021/06/21 06:44:14;;;;;;;0.45;0.10;;;19.10;73.90;;;;;;5050447;28;20068;-85
2021/06/21 06:46:40;;;;;;;1.35;0.40;;;19.00;73.90;;;;;;5054246;28;20048;-84
2021/06/21 06:49:07;;;;;;;0.57;0.38;;;19.00;74.00;;;;;;5032490;28;20048;-86
2021/06/21 06:51:44;;;;;;;0.15;0.03;;;19.00;74.10;;;;;;5048825;28;20033;-87
2021/06/21 06:59:21;;;;;;;0.10;0.00;;;19.00;74.20;;;;;;5052310;28;20033;-86
2021/06/21 07:01:47;;;;;;;0.40;0.30;;;19.00;74.10;;;;;;5048644;28;20044;-87
2021/06/21 07:04:14;;;;;;;1.80;0.10;;;19.10;74.10;;;;;;5048357;28;20048;-83
2021/06/21 07:06:40;;;;;;;0.05;0.00;;;19.20;74.00;;;;;;5031906;28;20044;-87
2021/06/21 07:09:06;;;;;;;0.50;0.20;;;19.20;73.90;;;;;;5052665;28;20048;-88
2021/06/21 07:11:40;;;;;;;0.68;0.30;;;19.30;73.80;;;;;;5053920;28;20029;-86
2021/06/21 07:14:07;;;;;;;0.25;0.05;;;19.40;73.60;;;;;;5053359;28;20025;-87
2021/06/21 07:16:34;;;;;;;0.17;0.05;;;19.50;73.50;;;;;;5047801;28;20045;-87
2021/06/21 07:19:00;;;;;;;1.77;0.32;;;19.70;73.40;;;;;;5048194;28;20029;-88
2021/06/21 07:21:26;;;;;;;0.00;0.00;;;19.80;73.10;;;;;;5048238;28;20029;-87
2021/06/21 07:23:52;;;;;;;1.65;0.68;;;19.90;73.00;;;;;;5035457;28;20474;-87
2021/06/21 07:26:19;;;;;;;0.55;0.10;;;19.90;72.90;;;;;;5052460;28;20045;-87
2021/06/21 07:28:45;;;;;;;0.17;0.10;;;19.90;73.00;;;;;;5052949;28;20032;-87
2021/06/21 07:31:11;;;;;;;0.32;0.00;;;19.90;73.00;;;;;;5052057;28;20040;-85
2021/06/21 07:33:38;;;;;;;0.00;0.00;;;20.00;72.90;;;;;;5031591;28;20417;-86
2021/06/21 07:36:05;;;;;;;0.75;0.00;;;20.10;72.90;;;;;;5035756;28;20044;-87
2021/06/21 07:38:31;;;;;;;0.32;0.15;;;20.10;72.70;;;;;;5035529;28;20044;-87
2021/06/21 07:40:57;;;;;;;0.35;0.10;;;20.20;72.70;;;;;;5048454;28;20044;-87
2021/06/21 07:43:23;;;;;;;0.20;0.03;;;20.30;72.60;;;;;;5047691;28;20040;-87
2021/06/21 07:45:50;;;;;;;4.57;0.10;;;20.50;72.30;;;;;;5048382;28;20040;-86
2021/06/21 07:48:17;;;;;;;0.32;0.10;;;20.70;72.00;;;;;;5031289;28;20038;-88
2021/06/21 07:50:43;;;;;;;0.80;0.32;;;20.70;71.80;;;;;;5050978;28;20037;-87
2021/06/21 07:53:09;;;;;;;0.20;0.10;;;20.70;71.80;;;;;;5048473;28;20230;-86
2021/06/21 07:55:35;;;;;;;0.20;0.13;;;20.80;71.70;;;;;;5047688;28;20040;-87
2021/06/21 07:58:02;;;;;;;0.08;0.00;;;21.10;71.60;;;;;;5047489;28;20021;-87
2021/06/21 08:00:28;;;;;;;0.20;0.00;;;21.40;71.10;;;;;;5047113;28;20033;-87
2021/06/21 08:02:54;;;;;;;0.03;0.00;;;21.70;70.50;;;;;;5051767;28;20043;-87
2021/06/21 08:05:21;;;;;;;0.20;0.00;;;22.00;70.00;;;;;;5052990;28;20048;-86
2021/06/21 08:07:47;;;;;;;0.38;0.00;;;22.10;69.70;;;;;;5031929;28;20034;-86
2021/06/21 08:10:13;;;;;;;0.40;0.13;;;22.20;69.70;;;;;;5047256;28;20021;-87
2021/06/21 08:12:40;;;;;;;3.60;0.10;;;22.20;69.50;;;;;;5031696;28;20040;-86
2021/06/21 08:15:06;;;;;;;0.43;0.00;;;22.20;69.50;;;;;;5020111;28;20037;-88
2021/06/21 08:17:32;;;;;;;0.80;0.10;;;22.20;69.50;;;;;;5057059;28;20454;-87
2021/06/21 08:19:58;;;;;;;0.20;0.03;;;22.30;69.30;;;;;;5032168;28;20072;-86
2021/06/21 08:22:25;;;;;;;0.40;0.20;;;22.30;69.30;;;;;;5051173;28;20462;-86
2021/06/21 08:24:51;;;;;;;0.30;0.00;;;22.20;69.30;;;;;;5034706;28;20063;-86
2021/06/21 08:27:17;;;;;;;0.22;0.00;;;22.20;69.50;;;;;;5030535;28;20030;-86
2021/06/21 08:29:43;;;;;;;0.20;0.10;;;22.20;69.50;;;;;;5034427;28;20081;-87
2021/06/21 08:32:10;;;;;;;0.52;0.15;;;22.20;69.40;;;;;;5047735;28;20494;-87
2021/06/21 08:34:38;;;;;;;0.43;0.20;;;22.20;69.50;;;;;;5051534;28;20044;-86
2021/06/21 08:37:04;;;;;;;0.30;0.10;;;22.10;69.40;;;;;;5029826;28;20037;-87
2021/06/21 08:39:30;;;;;;;0.82;0.05;;;22.10;69.30;;;;;;5046802;28;20033;-87
2021/06/21 08:42:00;;;;;;;0.08;0.00;;;22.10;69.20;;;;;;5051107;28;20021;-87
2021/06/21 08:44:26;;;;;;;0.22;0.05;;;22.10;69.20;;;;;;5050988;28;20049;-88
2021/06/21 08:46:52;;;;;;;1.55;0.43;;;22.20;69.10;;;;;;5050970;28;20127;-87
2021/06/21 08:49:19;;;;;;;1.33;0.52;;;22.30;68.80;;;;;;5013713;28;20056;-88
2021/06/21 08:51:45;;;;;;;0.10;0.00;;;22.50;68.60;;;;;;5046279;28;20371;-88
2021/06/21 08:54:11;;;;;;;0.10;0.00;;;22.70;68.10;;;;;;5046564;28;20029;-86
2021/06/21 08:56:37;;;;;;;0.20;0.05;;;22.90;67.80;;;;;;5050945;28;20028;-87
2021/06/21 08:59:06;;;;;;;0.10;0.00;;;23.20;67.30;;;;;;5047015;28;20383;-88
2021/06/21 09:01:33;;;;;;;2.30;0.10;;;23.40;67.00;;;;;;5045841;28;20059;-88
2021/06/21 09:04:00;;;;;;;0.10;0.00;;;23.50;66.60;;;;;;5045328;28;20024;-87
2021/06/21 09:06:35;;;;;;;0.10;0.10;;;23.60;66.40;;;;;;5050435;28;20040;-86
2021/06/21 09:09:02;;;;;;;0.40;0.20;;;23.70;66.20;;;;;;5047708;28;20033;-88
2021/06/21 09:11:47;;;;;;;0.20;0.00;;;23.80;66.10;;;;;;5016727;28;20045;-88
2021/06/21 09:14:25;;;;;;;0.50;0.25;;;24.10;65.80;;;;;;5048828;28;20386;-87
2021/06/21 09:16:52;;;;;;;0.05;0.00;;;24.30;65.30;;;;;;5050163;28;20037;-88
2021/06/21 09:19:18;;;;;;;0.32;0.20;;;24.70;65.00;;;;;;5013244;28;20044;-87
2021/06/21 09:21:44;;;;;;;0.00;0.00;;;25.00;64.00;;;;;;5050660;28;20029;-89
2021/06/21 09:24:40;;;;;;;0.20;0.05;;;25.30;63.40;;;;;;5051705;28;20029;-88
2021/06/21 09:27:06;;;;;;;0.00;0.00;;;25.70;62.80;;;;;;5039000;28;20381;-89
2021/06/21 09:29:36;;;;;;;0.00;0.00;;;26.00;62.40;;;;;;5033770;28;20029;-87
2021/06/21 09:32:02;;;;;;;0.00;0.00;;;26.20;61.90;;;;;;5052017;28;20644;-88
2021/06/21 09:34:28;;;;;;;0.10;0.00;;;26.50;61.70;;;;;;5051478;28;20418;-88
2021/06/21 09:36:55;;;;;;;0.20;0.00;;;26.70;61.30;;;;;;5050416;28;20402;-88
2021/06/21 09:39:28;;;;;;;0.08;0.00;;;26.90;61.00;;;;;;5051587;28;20020;-87
2021/06/21 09:42:08;;;;;;;0.20;0.00;;;27.00;60.60;;;;;;5032745;28;20049;-88
2021/06/21 09:44:49;;;;;;;0.00;0.00;;;27.10;60.30;;;;;;5050262;28;20370;-89
2021/06/21 09:47:23;;;;;;;0.00;0.00;;;27.20;60.10;;;;;;5050220;28;20402;-85
2021/06/21 09:50:03;;;;;;;0.00;0.00;;;27.30;59.80;;;;;;5049822;28;20029;-89
2021/06/21 09:52:32;;;;;;;0.73;0.00;;;27.40;59.50;;;;;;5050367;28;20032;-89
2021/06/21 09:54:58;;;;;;;0.00;0.00;;;27.50;59.10;;;;;;5051382;28;20276;-87
2021/06/21 09:57:24;;;;;;;0.10;0.00;;;27.50;59.10;;;;;;5033761;28;20032;-86
2021/06/21 09:59:52;;;;;;;1.00;0.00;;;27.60;58.90;;;;;;5033805;28;20025;-87
2021/06/21 10:02:22;;;;;;;0.10;0.00;;;27.70;58.70;;;;;;5031862;28;20037;-88
2021/06/21 10:04:48;;;;;;;0.00;0.00;;;27.80;58.50;;;;;;5030827;28;20054;-89
2021/06/21 10:07:34;;;;;;;0.08;0.00;;;28.00;58.20;;;;;;5046351;28;20037;-87
2021/06/21 10:10:06;;;;;;;0.00;0.00;;;28.20;57.70;;;;;;5046883;28;20036;-89
2021/06/21 10:12:32;;;;;;;0.20;0.00;;;28.10;56.80;;;;;;5045631;28;20044;-88
2021/06/21 10:14:58;;;;;;;0.00;0.00;;;27.90;57.20;;;;;;5049729;28;20044;-90
2021/06/21 10:17:24;;;;;;;0.00;0.00;;;27.70;57.40;;;;;;5035149;28;20040;-87
2021/06/21 10:19:50;;;;;;;0.00;0.00;;;27.70;57.50;;;;;;5034501;28;20042;-87
2021/06/21 10:22:19;;;;;;;0.38;0.00;;;27.80;57.40;;;;;;5049262;28;20040;-90
2021/06/21 10:24:46;;;;;;;0.10;0.00;;;28.00;57.20;;;;;;5033145;28;20055;-89
2021/06/21 10:27:13;;;;;;;0.40;0.03;;;27.90;56.90;;;;;;5049501;28;20033;-85
2021/06/21 10:29:39;;;;;;;0.00;0.00;;;27.70;56.90;;;;;;5054952;28;20029;-89
2021/06/21 10:32:06;;;;;;;0.00;0.00;;;27.60;57.10;;;;;;5053395;28;20044;-88
2021/06/21 10:34:32;;;;;;;0.25;0.00;;;27.50;57.00;;;;;;5037150;28;20410;-89
2021/06/21 10:36:58;;;;;;;2.20;0.10;;;27.40;57.00;;;;;;5053454;28;20033;-87
2021/06/21 10:39:29;;;;;;;0.65;0.05;;;27.30;57.10;;;;;;5037013;28;20017;-89
2021/06/21 10:42:04;;;;;;;0.00;0.00;;;27.10;57.00;;;;;;5034799;28;20512;-87
2021/06/21 10:44:37;;;;;;;0.10;0.00;;;26.80;57.10;;;;;;5053613;28;20025;-89
2021/06/21 10:47:41;;;;;;;3.70;0.10;;;26.60;57.20;;;;;;5029287;28;20057;-89
2021/06/21 10:50:15;;;;;;;0.08;0.00;;;26.40;57.40;;;;;;5013589;28;20044;-88
2021/06/21 10:52:51;;;;;;;0.00;0.00;;;26.20;57.50;;;;;;5044914;28;20483;-89
2021/06/21 10:55:24;;;;;;;0.20;0.00;;;26.10;57.40;;;;;;5034367;28;20026;-88
2021/06/21 10:58:07;;;;;;;0.00;0.00;;;25.90;57.40;;;;;;5029832;28;20399;-87
2021/06/21 11:00:44;;;;;;;0.35;0.20;;;25.80;57.50;;;;;;5044343;28;20482;-88
2021/06/21 11:03:26;;;;;;;0.00;0.00;;;25.80;57.50;;;;;;5053097;28;20032;-89
2021/06/21 11:05:53;;;;;;;0.00;0.00;;;25.80;57.20;;;;;;5038433;28;20029;-88
2021/06/21 11:08:27;;;;;;;0.00;0.00;;;25.90;57.20;;;;;;5050692;28;20025;-89
2021/06/21 11:10:57;;;;;;;0.00;0.00;;;26.00;56.70;;;;;;5052489;28;20377;-88
2021/06/21 11:13:33;;;;;;;0.05;0.00;;;26.20;56.50;;;;;;5032999;28;20033;-89
2021/06/21 11:16:19;;;;;;;0.00;0.00;;;26.40;56.10;;;;;;5043986;28;20029;-87
2021/06/21 11:18:46;;;;;;;0.30;0.00;;;26.50;55.90;;;;;;5054006;28;20024;-88
2021/06/21 11:21:12;;;;;;;0.10;0.00;;;26.60;55.80;;;;;;5052798;28;20478;-87
2021/06/21 11:23:40;;;;;;;0.00;0.00;;;26.60;55.50;;;;;;5052832;28;20398;-89
2021/06/21 11:26:06;;;;;;;0.00;0.00;;;26.70;55.40;;;;;;5031650;28;20424;-89
2021/06/21 11:28:43;;;;;;;0.60;0.15;;;26.60;55.40;;;;;;5048311;28;20036;-88
2021/06/21 11:31:19;;;;;;;0.00;0.00;;;26.50;55.50;;;;;;5047359;28;20033;-89
2021/06/21 11:33:51;;;;;;;0.20;0.00;;;26.50;55.50;;;;;;5048200;28;20036;-88
2021/06/21 11:36:37;;;;;;;0.00;0.00;;;26.40;55.60;;;;;;5049068;28;20040;-88
2021/06/21 11:39:28;;;;;;;1.35;0.03;;;26.30;55.40;;;;;;5050430;28;20017;-89
2021/06/21 11:41:55;;;;;;;0.00;0.00;;;26.20;55.20;;;;;;5038788;28;20032;-87
2021/06/21 11:44:39;;;;;;;0.00;0.00;;;26.20;55.40;;;;;;5051985;28;20029;-88
2021/06/21 11:47:14;;;;;;;0.00;0.00;;;26.30;55.20;;;;;;5049119;28;20498;-89
2021/06/21 11:49:41;;;;;;;0.47;0.00;;;26.60;55.10;;;;;;5048291;28;20036;-89
2021/06/21 11:52:07;;;;;;;0.00;0.00;;;26.70;54.60;;;;;;5047657;28;20021;-89
2021/06/21 11:54:41;;;;;;;0.00;0.00;;;26.80;54.40;;;;;;5047744;28;20029;-87
2021/06/21 11:57:07;;;;;;;0.00;0.00;;;26.80;54.20;;;;;;5052131;28;20024;-88
2021/06/21 11:59:38;;;;;;;0.10;0.00;;;26.80;54.10;;;;;;5051601;28;20039;-85
2021/06/21 12:02:04;;;;;;;;;;;26.80;54.10;;;;;;5052196;28;20041;-89
2021/06/21 12:04:30;;;;;;;0.08;0.05;;;26.80;53.90;;;;;;5052106;28;19905;-89
2021/06/21 12:06:56;;;;;;;0.00;0.00;;;26.60;53.50;;;;;;5051682;28;20399;-89
2021/06/21 12:09:23;;;;;;;0.00;0.00;;;26.50;53.80;;;;;;5035242;28;20025;-89
2021/06/21 12:11:52;;;;;;;0.00;0.00;;;26.40;54.00;;;;;;5053287;28;20052;-89
2021/06/21 12:14:24;;;;;;;4.65;0.00;;;26.40;54.00;;;;;;5051356;28;20017;-88
2021/06/21 12:16:51;;;;;;;0.03;0.00;;;26.30;54.00;;;;;;5049682;28;20033;-89
2021/06/21 12:19:22;;;;;;;0.00;0.00;;;26.20;54.10;;;;;;5052728;28;20032;-89
2021/06/21 12:21:48;;;;;;;0.75;0.00;;;26.10;54.10;;;;;;5051582;28;20036;-86
2021/06/21 12:24:28;;;;;;;0.00;0.00;;;26.10;54.30;;;;;;5047003;28;20036;-89
2021/06/21 12:26:56;;;;;;;0.00;0.00;;;26.10;54.20;;;;;;5049635;28;20389;-89
2021/06/21 12:29:36;;;;;;;2.03;0.10;;;26.10;54.20;;;;;;5050088;28;20481;-88
2021/06/21 12:32:10;;;;;;;1.80;0.00;;;26.00;54.40;;;;;;5034932;28;20044;-88
2021/06/21 12:34:53;;;;;;;0.20;0.10;;;25.80;54.80;;;;;;5015442;28;20074;-88
2021/06/21 12:37:28;;;;;;;0.00;0.00;;;25.60;55.30;;;;;;5014917;28;20025;-86
2021/06/21 12:40:14;;;;;;;0.98;0.00;;;25.30;55.70;;;;;;5031369;28;20482;-88
2021/06/21 12:42:40;;;;;;;0.03;0.00;;;25.20;56.10;;;;;;5030980;28;20084;-88
2021/06/21 12:45:08;;;;;;;0.40;0.30;;;24.90;56.60;;;;;;5014720;28;20045;-89
2021/06/21 12:47:34;;;;;;;0.10;0.00;;;24.60;57.10;;;;;;5034502;28;20394;-87
2021/06/21 12:50:05;;;;;;;3.55;0.10;;;24.40;57.60;;;;;;5047146;28;20029;-87
2021/06/21 12:52:31;;;;;;;0.20;0.00;;;24.10;58.00;;;;;;5046551;28;20036;-88
2021/06/21 12:55:05;;;;;;;0.10;0.00;;;24.00;58.30;;;;;;5046409;28;20354;-89
2021/06/21 12:57:47;;;;;;;0.00;0.00;;;23.80;58.80;;;;;;5046163;28;20030;-88
2021/06/21 13:00:15;;;;;;;0.00;0.00;;;23.50;59.20;;;;;;5050308;28;20113;-86